Fritchton, Indiana
Current Conditions -  °F | °C
As of 6:53 PM on Friday 24 Oct 2014 (Local Time) from KLWV Reporting Station
Clear Clear  
Wind Chill: 59°   Ceiling: Unl
Heat Index: 59°   Visibility: 9mi
Dew Point: 51°   Wind: 5mph
Humidity: 75%   Direction: 190°S
Pressure: 30.03"   Gusts: NA
Location:  38.6298°N, 87.5042°W
Report Text: KLWV 242353Z AUTO 19004KT 9SM CLR 15/11 A3003 RMK AO2 SLP170 T01500106 10217 20150 53001
Loading
Personal Weather Stations






























Interactive Weather Map
Tropical Storm Tracking
New forecast layout! Learn more

10-Day Weather Forecast

Advertisements
Track Severe Weather on mobile